createdAt,value
2018-06-09T00:02:14.025Z,26.80
2018-06-09T00:04:45.521Z,28.90
2018-06-09T00:07:16.845Z,28.10
2018-06-09T00:09:48.333Z,25.33
2018-06-09T00:12:20.053Z,25.97
2018-06-09T00:14:52.068Z,25.27
2018-06-09T00:17:23.997Z,25.33
2018-06-09T00:19:55.484Z,26.03
2018-06-09T00:22:27.069Z,27.50
2018-06-09T00:24:58.380Z,27.80
2018-06-09T00:27:29.717Z,27.00
2018-06-09T00:30:01.026Z,25.13
2018-06-09T00:32:32.360Z,26.10
2018-06-09T00:35:03.978Z,27.43
2018-06-09T00:37:35.487Z,25.57
2018-06-09T00:40:07.503Z,25.53
2018-06-09T00:42:39.282Z,24.80
2018-06-09T00:45:10.891Z,26.63
2018-06-09T00:47:42.985Z,25.37
2018-06-09T00:50:14.573Z,25.77
2018-06-09T00:52:46.054Z,24.37
2018-06-09T00:55:17.714Z,26.33
2018-06-09T00:57:49.467Z,25.00
2018-06-09T01:00:21.131Z,25.87
2018-06-09T01:02:52.946Z,25.00
2018-06-09T01:05:24.733Z,26.47
2018-06-09T01:07:56.300Z,26.97
2018-06-09T01:10:27.957Z,26.67
2018-06-09T01:13:01.342Z,28.17
2018-06-09T01:15:32.847Z,26.20
2018-06-09T01:18:04.165Z,25.00
2018-06-09T01:20:36.490Z,26.57
2018-06-09T01:23:07.943Z,25.23
2018-06-09T01:25:39.282Z,25.83
2018-06-09T01:28:10.581Z,25.67
2018-06-09T01:30:42.154Z,25.87
2018-06-09T01:33:13.769Z,24.57
2018-06-09T01:35:44.933Z,23.77
2018-06-09T01:38:16.181Z,24.10
2018-06-09T01:40:47.395Z,24.37
2018-06-09T01:43:18.801Z,23.23
2018-06-09T01:45:51.701Z,23.50
2018-06-09T01:48:23.476Z,25.03
2018-06-09T01:50:55.012Z,25.53
2018-06-09T01:53:26.495Z,25.03
2018-06-09T01:55:58.074Z,24.87
2018-06-09T01:58:29.806Z,25.23
2018-06-09T02:01:01.326Z,25.13
2018-06-09T02:03:32.846Z,23.70
2018-06-09T02:06:04.379Z,24.10
2018-06-09T02:08:35.861Z,20.80
2018-06-09T02:11:07.396Z,23.17
2018-06-09T02:13:38.841Z,23.40
2018-06-09T02:16:10.118Z,24.00
2018-06-09T02:18:41.462Z,24.80
2018-06-09T02:21:13.070Z,22.13
2018-06-09T02:23:44.670Z,23.07
2018-06-09T02:26:16.213Z,23.13
2018-06-09T02:28:47.993Z,21.77
2018-06-09T02:31:19.491Z,23.93
2018-06-09T02:33:50.901Z,22.93
2018-06-09T02:36:22.561Z,22.10
2018-06-09T02:38:54.140Z,24.03
2018-06-09T02:41:25.602Z,22.93
2018-06-09T02:43:57.457Z,22.63
2018-06-09T02:46:29.190Z,21.47
2018-06-09T02:49:00.698Z,23.83
2018-06-09T02:51:32.018Z,23.30
2018-06-09T02:54:03.838Z,22.00
2018-06-09T02:56:35.590Z,21.93
2018-06-09T02:59:07.058Z,21.83
2018-06-09T03:01:38.463Z,21.47
2018-06-09T03:04:09.890Z,23.57
2018-06-09T03:06:41.509Z,20.60
2018-06-09T03:09:12.646Z,22.67
2018-06-09T03:11:43.933Z,21.70
2018-06-09T03:14:15.413Z,22.67
2018-06-09T03:16:46.897Z,21.90
2018-06-09T03:19:18.563Z,22.03
2018-06-09T03:21:50.093Z,21.70
2018-06-09T03:24:21.773Z,19.83
2018-06-09T03:26:53.327Z,21.20
2018-06-09T03:29:24.865Z,22.07
2018-06-09T03:31:56.415Z,21.83
2018-06-09T03:34:27.993Z,20.10
2018-06-09T03:36:59.164Z,21.17
2018-06-09T03:39:30.791Z,20.73
2018-06-09T03:42:02.356Z,19.50
2018-06-09T03:44:34.025Z,20.53
2018-06-09T03:47:05.855Z,18.53
2018-06-09T03:49:37.587Z,20.67
2018-06-09T03:52:09.591Z,21.07
2018-06-09T03:54:42.547Z,19.97
2018-06-09T03:57:14.129Z,19.80
2018-06-09T03:59:45.617Z,20.33
2018-06-09T04:02:17.105Z,20.37
2018-06-09T04:04:48.985Z,17.07
2018-06-09T04:07:20.557Z,17.00
2018-06-09T04:09:52.111Z,17.90
2018-06-09T04:12:23.819Z,17.27
2018-06-09T04:14:55.704Z,17.97
2018-06-09T04:17:27.158Z,18.77
2018-06-09T04:19:58.694Z,16.17
2018-06-09T04:22:30.205Z,17.53
2018-06-09T04:25:01.665Z,15.47
2018-06-09T04:27:33.358Z,16.53
2018-06-09T04:30:04.974Z,16.40
2018-06-09T04:32:36.552Z,16.60
2018-06-09T04:35:08.653Z,16.53
2018-06-09T04:37:40.210Z,17.23
2018-06-09T04:40:11.806Z,17.10
2018-06-09T04:42:43.251Z,16.63
2018-06-09T04:45:14.660Z,18.43
2018-06-09T04:47:46.307Z,16.13
2018-06-09T04:50:17.897Z,16.23
2018-06-09T04:52:49.364Z,16.13
2018-06-09T04:55:21.127Z,14.87
2018-06-09T04:57:52.753Z,15.73
2018-06-09T05:00:24.763Z,15.37
2018-06-09T05:02:56.213Z,15.30
2018-06-09T05:05:27.714Z,15.13
2018-06-09T05:07:58.957Z,14.53
2018-06-09T05:10:30.250Z,14.83
2018-06-09T05:13:01.690Z,15.40
2018-06-09T05:15:33.193Z,14.87
2018-06-09T05:18:05.517Z,14.50
2018-06-09T05:20:37.429Z,14.70
2018-06-09T05:23:09.018Z,14.93
2018-06-09T05:25:40.534Z,14.20
2018-06-09T05:28:12.108Z,14.70
2018-06-09T05:30:44.153Z,14.43
2018-06-09T05:33:15.658Z,14.50
2018-06-09T05:35:47.211Z,13.77
2018-06-09T05:38:18.770Z,13.40
2018-06-09T05:40:50.466Z,13.73
2018-06-09T05:43:22.333Z,12.73
2018-06-09T05:45:54.009Z,13.37
2018-06-09T05:48:25.587Z,12.07
2018-06-09T05:50:57.231Z,12.50
2018-06-09T05:53:28.793Z,11.67
2018-06-09T05:56:00.258Z,11.23
2018-06-09T05:58:34.712Z,11.97
2018-06-09T06:01:06.366Z,11.17
2018-06-09T06:03:38.001Z,10.63
2018-06-09T06:06:09.505Z,11.07
2018-06-09T06:08:40.957Z,11.07
2018-06-09T06:11:12.544Z,12.37
2018-06-09T06:13:44.205Z,12.10
2018-06-09T06:16:15.890Z,11.97
2018-06-09T06:18:47.555Z,11.93
2018-06-09T06:21:19.353Z,11.03
2018-06-09T06:23:51.318Z,12.13
2018-06-09T06:26:22.480Z,12.07
2018-06-09T06:28:53.809Z,11.27
2018-06-09T06:31:25.698Z,11.17
2018-06-09T06:33:57.268Z,11.50
2018-06-09T06:36:28.921Z,11.17
2018-06-09T06:39:00.587Z,11.33
2018-06-09T06:41:32.106Z,11.53
2018-06-09T06:44:04.027Z,12.40
2018-06-09T06:46:35.557Z,11.80
2018-06-09T06:49:07.715Z,11.93
2018-06-09T06:51:39.345Z,11.57
2018-06-09T06:54:10.859Z,11.63
2018-06-09T06:56:42.346Z,11.27
2018-06-09T06:59:14.106Z,12.10
2018-06-09T07:01:45.647Z,11.73
2018-06-09T07:04:17.285Z,11.50
2018-06-09T07:06:49.143Z,11.37
2018-06-09T07:09:20.571Z,11.47
2018-06-09T07:11:51.708Z,11.80
2018-06-09T07:14:23.102Z,11.90
2018-06-09T07:16:54.601Z,11.10
2018-06-09T07:19:26.115Z,11.33
2018-06-09T07:21:57.614Z,10.77
2018-06-09T07:24:28.881Z,11.40
2018-06-09T07:27:00.333Z,11.80
2018-06-09T07:29:31.943Z,11.03
2018-06-09T07:32:03.610Z,11.23
2018-06-09T07:34:35.105Z,12.07
2018-06-09T07:37:06.733Z,12.67
2018-06-09T07:39:38.007Z,13.03
2018-06-09T07:42:09.393Z,11.33
2018-06-09T07:44:42.011Z,11.90
2018-06-09T07:47:14.047Z,12.30
2018-06-09T07:49:45.574Z,12.47
2018-06-09T07:52:17.342Z,11.80
2018-06-09T07:54:49.086Z,12.30
2018-06-09T07:57:20.767Z,12.83
2018-06-09T07:59:52.334Z,12.57
2018-06-09T08:02:24.061Z,12.73
2018-06-09T08:04:55.787Z,12.33
2018-06-09T08:07:27.614Z,12.33
2018-06-09T08:09:59.715Z,12.37
2018-06-09T08:12:31.624Z,11.60
2018-06-09T08:15:03.818Z,12.00
2018-06-09T08:17:35.378Z,11.73
2018-06-09T08:20:07.686Z,12.03
2018-06-09T08:22:39.605Z,13.40
2018-06-09T08:25:11.380Z,13.27
2018-06-09T08:27:42.940Z,13.17
2018-06-09T08:30:14.323Z,13.60
2018-06-09T08:32:46.181Z,13.50
2018-06-09T08:35:17.830Z,13.57
2018-06-09T08:37:49.522Z,14.37
2018-06-09T08:40:21.385Z,13.70
2018-06-09T08:42:53.283Z,14.47
2018-06-09T08:45:24.975Z,13.20
2018-06-09T08:47:56.633Z,14.00
2018-06-09T08:50:28.225Z,13.57
2018-06-09T08:52:59.906Z,15.10
2018-06-09T08:55:31.525Z,14.80
2018-06-09T08:58:03.747Z,14.87
2018-06-09T09:00:35.618Z,14.67
2018-06-09T09:03:07.395Z,15.17
2018-06-09T09:05:39.145Z,14.83
2018-06-09T09:08:10.835Z,14.90
2018-06-09T09:10:42.524Z,15.17
2018-06-09T09:13:14.377Z,15.53
2018-06-09T09:15:46.326Z,14.93
2018-06-09T09:18:17.880Z,14.40
2018-06-09T09:20:49.668Z,14.83
2018-06-09T09:23:20.965Z,15.23
2018-06-09T09:25:52.490Z,14.37
2018-06-09T09:28:24.477Z,15.43
2018-06-09T09:30:56.466Z,16.23
2018-06-09T09:33:27.926Z,15.23
2018-06-09T09:35:59.435Z,15.50
2018-06-09T09:38:31.177Z,16.30
2018-06-09T09:41:02.798Z,14.97
2018-06-09T09:43:34.405Z,16.30
2018-06-09T09:46:06.283Z,17.00
2018-06-09T09:48:37.874Z,17.50
2018-06-09T09:51:09.557Z,16.57
2018-06-09T09:53:41.229Z,16.90
2018-06-09T09:56:13.272Z,17.27
2018-06-09T09:58:45.075Z,17.53
2018-06-09T10:01:16.661Z,16.93
2018-06-09T10:03:48.498Z,16.00
2018-06-09T10:06:19.872Z,16.60
2018-06-09T10:08:51.203Z,16.40
2018-06-09T10:11:22.829Z,15.30
2018-06-09T10:13:54.534Z,16.03
2018-06-09T10:16:26.411Z,16.40
2018-06-09T10:18:58.085Z,15.67
2018-06-09T10:21:29.670Z,15.53
2018-06-09T10:24:02.095Z,16.02
2018-06-09T10:26:34.318Z,16.25
2018-06-09T10:29:06.456Z,16.00
2018-06-09T10:31:38.766Z,16.02
2018-06-09T10:34:11.262Z,15.75
2018-06-09T10:36:43.209Z,15.15
2018-06-09T10:39:15.297Z,15.10
2018-06-09T10:41:47.073Z,15.90
2018-06-09T10:44:18.951Z,15.98
2018-06-09T10:46:51.291Z,13.93
2018-06-09T10:49:23.345Z,13.83
2018-06-09T10:51:55.633Z,13.83
2018-06-09T10:54:27.749Z,14.53
2018-06-09T10:56:59.905Z,15.08
2018-06-09T10:59:32.133Z,15.68
2018-06-09T11:02:04.413Z,15.75
2018-06-09T11:04:36.558Z,15.35
2018-06-09T11:07:08.737Z,15.55
2018-06-09T11:09:40.850Z,16.42
2018-06-09T11:12:12.892Z,15.78
2018-06-09T11:14:45.222Z,13.58
2018-06-09T11:17:17.747Z,14.87
2018-06-09T11:19:49.995Z,14.95
2018-06-09T11:22:23.540Z,15.40
2018-06-09T11:24:55.719Z,15.98
2018-06-09T11:27:28.225Z,16.52
2018-06-09T11:30:00.454Z,16.20
2018-06-09T11:32:32.693Z,15.50
2018-06-09T11:35:04.969Z,15.32
2018-06-09T11:37:37.439Z,18.00
2018-06-09T11:40:09.871Z,16.55
2018-06-09T11:42:41.942Z,15.15
2018-06-09T11:45:14.136Z,16.65
2018-06-09T11:47:46.518Z,15.50
2018-06-09T11:50:18.586Z,14.68
2018-06-09T11:52:50.743Z,13.90
2018-06-09T11:55:23.006Z,14.95
2018-06-09T11:57:55.087Z,14.20
2018-06-09T12:00:27.266Z,14.33
2018-06-09T12:02:59.604Z,15.28
2018-06-09T12:05:32.123Z,15.32
2018-06-09T12:08:04.508Z,16.37
2018-06-09T12:10:36.573Z,15.50
2018-06-09T12:13:08.773Z,14.83
2018-06-09T12:15:41.053Z,15.23
2018-06-09T12:18:13.457Z,16.48
2018-06-09T12:20:45.657Z,15.95
2018-06-09T12:23:17.852Z,13.72
2018-06-09T12:25:50.041Z,14.68
2018-06-09T12:28:22.317Z,15.58
2018-06-09T12:30:54.665Z,16.00
2018-06-09T12:33:26.745Z,15.28
2018-06-09T12:35:58.784Z,15.50
2018-06-09T12:38:30.892Z,15.45
2018-06-09T12:41:03.226Z,16.05
2018-06-09T12:43:35.538Z,15.58
2018-06-09T12:46:07.902Z,16.70
2018-06-09T12:48:40.324Z,16.48
2018-06-09T12:51:12.611Z,14.50
2018-06-09T12:53:44.809Z,15.23
2018-06-09T12:56:16.925Z,16.60
2018-06-09T12:58:49.157Z,18.35
2018-06-09T13:01:21.372Z,19.48
2018-06-09T13:03:53.516Z,17.30
2018-06-09T13:06:25.680Z,17.02
2018-06-09T13:08:58.069Z,17.70
2018-06-09T13:11:30.194Z,16.42
2018-06-09T13:14:02.816Z,18.50
2018-06-09T13:16:35.129Z,19.25
2018-06-09T13:19:07.562Z,19.23
2018-06-09T13:21:39.305Z,18.57
2018-06-09T13:24:11.143Z,15.90
2018-06-09T13:26:43.539Z,16.50
2018-06-09T13:29:15.590Z,16.73
2018-06-09T13:31:49.150Z,15.43
2018-06-09T13:34:21.417Z,13.93
2018-06-09T13:36:53.897Z,14.78
2018-06-09T13:39:26.117Z,13.90
2018-06-09T13:41:58.498Z,14.78
2018-06-09T13:44:31.017Z,14.25
2018-06-09T13:47:02.893Z,14.25
2018-06-09T13:49:35.123Z,14.43
2018-06-09T13:52:06.967Z,15.48
2018-06-09T13:54:38.941Z,16.40
2018-06-09T13:57:11.535Z,16.90
2018-06-09T13:59:43.581Z,14.63
2018-06-09T14:02:15.804Z,13.30
2018-06-09T14:04:47.940Z,14.90
2018-06-09T14:07:20.080Z,13.65
2018-06-09T14:09:52.337Z,14.53
2018-06-09T14:12:24.498Z,13.80
2018-06-09T14:14:56.561Z,14.18
2018-06-09T14:17:28.593Z,15.35
2018-06-09T14:20:00.720Z,13.40
2018-06-09T14:22:32.614Z,12.13
2018-06-09T14:25:05.195Z,13.85
2018-06-09T14:27:37.278Z,15.53
2018-06-09T14:30:09.433Z,14.85
2018-06-09T14:32:41.467Z,13.93
2018-06-09T14:35:13.618Z,13.45
2018-06-09T14:37:46.091Z,13.03
2018-06-09T14:40:18.138Z,13.70
2018-06-09T14:42:50.367Z,15.78
2018-06-09T14:45:22.578Z,16.97
2018-06-09T14:47:54.690Z,17.20
2018-06-09T14:50:26.822Z,17.17
2018-06-09T14:52:59.032Z,16.62
2018-06-09T14:55:31.108Z,20.88
2018-06-09T14:58:03.008Z,19.25
2018-06-09T15:00:35.160Z,20.05
2018-06-09T15:03:07.210Z,18.87
2018-06-09T15:05:39.478Z,19.32
2018-06-09T15:08:11.577Z,20.57
2018-06-09T15:10:43.692Z,19.80
2018-06-09T15:13:16.199Z,19.10
2018-06-09T15:15:48.359Z,17.98
2018-06-09T15:18:20.259Z,18.45
2018-06-09T15:20:52.651Z,19.60
2018-06-09T15:23:24.729Z,17.87
2018-06-09T15:25:56.862Z,19.77
2018-06-09T15:28:29.216Z,18.70
2018-06-09T15:31:01.554Z,17.10
2018-06-09T15:33:33.735Z,18.50
2018-06-09T15:36:05.805Z,17.75
2018-06-09T15:38:37.937Z,16.55
2018-06-09T15:41:10.075Z,16.45
2018-06-09T15:43:42.402Z,15.05
2018-06-09T15:46:14.765Z,15.75
2018-06-09T15:48:46.896Z,15.38
2018-06-09T15:51:18.979Z,14.13
2018-06-09T15:53:51.512Z,17.60
2018-06-09T15:56:23.887Z,20.70
2018-06-09T15:58:56.110Z,18.10
2018-06-09T16:01:28.436Z,16.05
2018-06-09T16:04:00.631Z,14.83
2018-06-09T16:06:32.487Z,16.52
2018-06-09T16:09:06.476Z,19.48
2018-06-09T16:11:38.648Z,19.65
2018-06-09T16:14:10.668Z,18.98
2018-06-09T16:16:42.804Z,18.60
2018-06-09T16:19:15.142Z,17.48
2018-06-09T16:21:47.429Z,17.87
2018-06-09T16:24:19.531Z,16.32
2018-06-09T16:26:51.298Z,14.78
2018-06-09T16:29:23.222Z,15.70
2018-06-09T16:31:55.386Z,14.25
2018-06-09T16:34:28.866Z,16.00
2018-06-09T16:37:00.856Z,16.42
2018-06-09T16:39:32.702Z,15.50
2018-06-09T16:42:04.530Z,16.05
2018-06-09T16:44:36.800Z,14.85
2018-06-09T16:47:09.268Z,15.80
2018-06-09T16:49:41.444Z,13.90
2018-06-09T16:52:13.514Z,15.65
2018-06-09T16:54:45.696Z,14.43
2018-06-09T16:57:17.455Z,13.43
2018-06-09T16:59:49.591Z,13.13
2018-06-09T17:02:21.674Z,14.07
2018-06-09T17:04:54.131Z,12.20
2018-06-09T17:07:26.185Z,13.65
2018-06-09T17:09:58.406Z,13.40
2018-06-09T17:12:30.457Z,12.78
2018-06-09T17:15:02.648Z,13.15
2018-06-09T17:17:34.718Z,12.10
2018-06-09T17:20:06.940Z,13.32
2018-06-09T17:22:39.585Z,13.22
2018-06-09T17:25:12.292Z,12.58
2018-06-09T17:27:44.566Z,11.93
2018-06-09T17:30:16.626Z,12.23
2018-06-09T17:32:48.727Z,11.88
2018-06-09T17:35:21.166Z,11.25
2018-06-09T17:37:53.302Z,12.07
2018-06-09T17:40:27.655Z,12.25
2018-06-09T17:43:00.163Z,12.35
2018-06-09T17:45:32.301Z,12.30
2018-06-09T17:48:04.557Z,11.33
2018-06-09T17:50:36.711Z,12.73
2018-06-09T17:53:09.649Z,13.32
2018-06-09T17:55:41.769Z,12.98
2018-06-09T17:58:13.870Z,14.25
2018-06-09T18:00:46.045Z,13.90
2018-06-09T18:03:18.162Z,13.68
2018-06-09T18:05:49.956Z,13.15
2018-06-09T18:08:22.214Z,13.20
2018-06-09T18:10:54.491Z,12.55
2018-06-09T18:13:26.656Z,12.65
2018-06-09T18:15:59.148Z,12.88
2018-06-09T18:18:31.841Z,14.33
2018-06-09T18:21:04.008Z,13.88
2018-06-09T18:23:35.891Z,14.33
2018-06-09T18:26:08.217Z,14.30
2018-06-09T18:28:40.735Z,14.43
2018-06-09T18:31:12.372Z,14.45
2018-06-09T18:33:44.618Z,13.15
2018-06-09T18:36:17.284Z,14.13
2018-06-09T18:38:49.729Z,13.88
2018-06-09T18:41:21.421Z,14.70
2018-06-09T18:43:53.109Z,14.97
2018-06-09T18:46:25.523Z,14.85
2018-06-09T18:48:58.539Z,14.87
2018-06-09T18:51:30.246Z,14.20
2018-06-09T18:54:02.744Z,13.63
2018-06-09T18:56:34.912Z,14.63
2018-06-09T18:59:06.784Z,15.77
2018-06-09T19:01:38.772Z,14.30
2018-06-09T19:04:11.350Z,15.25
2018-06-09T19:06:43.836Z,14.40
2018-06-09T19:09:15.632Z,14.10
2018-06-09T19:11:47.584Z,15.38
2018-06-09T19:14:19.230Z,14.03
2018-06-09T19:16:50.555Z,14.67
2018-06-09T19:19:22.112Z,14.13
2018-06-09T19:21:53.847Z,14.73
2018-06-09T19:24:25.292Z,13.83
2018-06-09T19:26:56.979Z,14.20
2018-06-09T19:29:29.417Z,12.73
2018-06-09T19:32:01.386Z,13.43
2018-06-09T19:34:33.358Z,14.80
2018-06-09T19:37:05.006Z,14.73
2018-06-09T19:39:36.650Z,14.10
2018-06-09T19:42:08.298Z,14.63
2018-06-09T19:44:39.486Z,14.17
2018-06-09T19:47:10.840Z,15.27
2018-06-09T19:49:42.442Z,14.53
2018-06-09T19:52:13.917Z,14.70
2018-06-09T19:54:45.406Z,13.73
2018-06-09T19:57:17.041Z,13.93
2018-06-09T19:59:48.680Z,13.33
2018-06-09T20:02:20.441Z,13.47
2018-06-09T20:04:52.086Z,12.40
2018-06-09T20:07:23.620Z,12.70
2018-06-09T20:09:55.145Z,12.07
2018-06-09T20:12:26.955Z,11.57
2018-06-09T20:14:58.520Z,11.40
2018-06-09T20:17:29.953Z,11.03
2018-06-09T20:20:01.303Z,11.87
2018-06-09T20:22:32.896Z,11.90
2018-06-09T20:25:04.515Z,12.13
2018-06-09T20:27:36.508Z,12.07
2018-06-09T20:30:08.297Z,12.23
2018-06-09T20:32:40.015Z,12.17
2018-06-09T20:35:11.738Z,11.70
2018-06-09T20:37:43.446Z,11.63
2018-06-09T20:40:15.598Z,12.20
2018-06-09T20:42:47.254Z,13.47
2018-06-09T20:45:18.777Z,11.77
2018-06-09T20:47:50.081Z,12.47
2018-06-09T20:50:21.391Z,11.17
2018-06-09T20:52:53.406Z,12.50
2018-06-09T20:55:25.230Z,11.47
2018-06-09T20:57:56.829Z,10.53
2018-06-09T21:00:28.483Z,10.57
2018-06-09T21:03:00.153Z,9.83
2018-06-09T21:05:31.884Z,9.87
2018-06-09T21:08:03.485Z,9.83
2018-06-09T21:10:35.035Z,9.77
2018-06-09T21:13:06.818Z,10.07
2018-06-09T21:15:38.553Z,10.23
2018-06-09T21:18:10.541Z,10.13
2018-06-09T21:20:41.789Z,10.03
2018-06-09T21:23:13.199Z,9.57
2018-06-09T21:25:44.712Z,9.57
2018-06-09T21:28:21.926Z,9.97
2018-06-09T21:30:58.910Z,9.80
2018-06-09T21:33:52.465Z,10.03
2018-06-09T21:36:28.369Z,9.63
2018-06-09T21:39:01.064Z,9.03
2018-06-09T21:41:37.586Z,9.53
2018-06-09T21:44:19.143Z,9.60
2018-06-09T21:46:50.759Z,9.70
2018-06-09T21:49:22.407Z,8.93
2018-06-09T21:51:53.905Z,9.10
2018-06-09T21:54:25.149Z,9.10
2018-06-09T21:56:56.710Z,9.40
2018-06-09T21:59:28.275Z,8.73
2018-06-09T22:02:02.705Z,9.83
2018-06-09T22:04:34.235Z,9.60
2018-06-09T22:07:07.022Z,9.07
2018-06-09T22:09:38.911Z,8.73
2018-06-09T22:12:11.157Z,8.63
2018-06-09T22:14:43.186Z,8.57
2018-06-09T22:17:14.896Z,8.37
2018-06-09T22:19:46.367Z,8.93
2018-06-09T22:22:18.300Z,8.07
2018-06-09T22:24:50.212Z,7.87
2018-06-09T22:27:21.790Z,7.70
2018-06-09T22:29:55.221Z,8.07
2018-06-09T22:32:28.266Z,8.20
2018-06-09T22:34:59.754Z,8.20
2018-06-09T22:37:31.688Z,8.67
2018-06-09T22:40:03.620Z,7.83
2018-06-09T22:42:35.382Z,8.10
2018-06-09T22:45:07.069Z,8.23
2018-06-09T22:47:38.906Z,7.50
2018-06-09T22:50:10.585Z,8.40
2018-06-09T22:52:42.076Z,9.03
2018-06-09T22:55:14.027Z,8.40
2018-06-09T22:57:45.683Z,8.50
2018-06-09T23:00:31.111Z,8.40
2018-06-09T23:03:02.423Z,8.30
2018-06-09T23:05:33.963Z,7.43
2018-06-09T23:08:05.534Z,8.17
2018-06-09T23:10:37.883Z,7.93
2018-06-09T23:13:10.077Z,7.83
2018-06-09T23:15:42.715Z,7.97
2018-06-09T23:18:14.349Z,7.73
2018-06-09T23:20:46.218Z,8.40
2018-06-09T23:23:18.001Z,8.67
2018-06-09T23:25:49.459Z,7.73
2018-06-09T23:28:21.402Z,8.13
2018-06-09T23:30:55.822Z,6.93
2018-06-09T23:33:27.353Z,7.30
2018-06-09T23:35:59.280Z,7.17
2018-06-09T23:38:30.819Z,7.40
2018-06-09T23:41:02.409Z,7.03
2018-06-09T23:43:34.090Z,6.77
2018-06-09T23:46:05.793Z,6.57
2018-06-09T23:48:38.137Z,6.67
2018-06-09T23:51:10.795Z,7.13
2018-06-09T23:53:42.524Z,7.17
2018-06-09T23:56:14.640Z,7.23
2018-06-09T23:58:47.781Z,7.10
